createdAt,value
2022-08-24T00:00:10.253Z,2.28
2022-08-24T00:02:37.029Z,2.47
2022-08-24T00:05:04.690Z,2.25
2022-08-24T00:07:31.616Z,2.05
2022-08-24T00:09:58.437Z,2.22
2022-08-24T00:12:25.710Z,2.63
2022-08-24T00:14:53.376Z,3.28
2022-08-24T00:17:20.481Z,2.05
2022-08-24T00:19:47.400Z,2.20
2022-08-24T00:22:14.074Z,2.88
2022-08-24T00:24:40.748Z,2.80
2022-08-24T00:27:08.482Z,3.75
2022-08-24T00:29:35.359Z,3.05
2022-08-24T00:32:02.121Z,2.80
2022-08-24T00:34:30.242Z,2.58
2022-08-24T00:36:56.930Z,2.60
2022-08-24T00:39:23.904Z,2.72
2022-08-24T00:41:51.602Z,2.55
2022-08-24T00:44:20.778Z,1.55
2022-08-24T00:47:01.745Z,2.70
2022-08-24T00:49:37.386Z,4.13
2022-08-24T00:52:14.482Z,3.05
2022-08-24T00:54:55.141Z,2.65
2022-08-24T00:57:27.521Z,4.00
2022-08-24T00:59:58.688Z,4.07
2022-08-24T01:02:29.470Z,2.13
2022-08-24T01:04:59.721Z,1.75
2022-08-24T01:07:29.186Z,1.92
2022-08-24T01:10:00.170Z,2.63
2022-08-24T01:12:29.326Z,2.60
2022-08-24T01:14:57.917Z,3.53
2022-08-24T01:17:44.162Z,3.30
2022-08-24T01:20:11.800Z,2.45
2022-08-24T01:22:53.989Z,2.83
2022-08-24T01:25:22.798Z,2.45
2022-08-24T01:27:51.894Z,2.67
2022-08-24T01:30:20.605Z,2.67
2022-08-24T01:35:22.593Z,2.55
2022-08-24T01:37:49.850Z,2.55
2022-08-24T01:40:18.423Z,3.17
2022-08-24T01:42:50.511Z,2.78
2022-08-24T01:45:18.344Z,3.50
2022-08-24T01:47:45.436Z,3.25
2022-08-24T01:50:12.698Z,2.85
2022-08-24T01:53:04.007Z,2.20
2022-08-24T01:55:29.382Z,3.70
2022-08-24T01:57:56.209Z,3.13
2022-08-24T02:00:22.987Z,3.05
2022-08-24T02:02:49.787Z,3.35
2022-08-24T02:05:17.152Z,4.38
2022-08-24T02:07:44.145Z,3.42
2022-08-24T02:10:14.724Z,3.42
2022-08-24T02:12:43.580Z,3.95
2022-08-24T02:15:11.400Z,2.90
2022-08-24T02:17:38.847Z,3.28
2022-08-24T02:20:07.055Z,2.78
2022-08-24T02:22:33.744Z,3.20
2022-08-24T02:25:00.409Z,3.38
2022-08-24T02:27:27.033Z,2.97
2022-08-24T02:29:53.658Z,3.30
2022-08-24T02:32:20.462Z,2.67
2022-08-24T02:34:47.094Z,3.05
2022-08-24T02:37:14.530Z,4.07
2022-08-24T02:39:41.339Z,3.15
2022-08-24T02:42:08.016Z,3.80
2022-08-24T02:44:35.018Z,3.25
2022-08-24T02:47:01.663Z,3.33
2022-08-24T02:49:28.435Z,3.17
2022-08-24T02:51:55.550Z,3.42
2022-08-24T02:54:22.482Z,2.63
2022-08-24T02:56:49.362Z,2.65
2022-08-24T02:59:16.975Z,3.35
2022-08-24T03:01:44.951Z,3.08
2022-08-24T03:04:12.023Z,4.50
2022-08-24T03:06:39.021Z,2.22
2022-08-24T03:09:06.062Z,3.03
2022-08-24T03:11:32.770Z,3.90
2022-08-24T03:13:59.698Z,3.25
2022-08-24T03:16:28.061Z,3.00
2022-08-24T03:18:54.999Z,3.55
2022-08-24T03:21:21.898Z,3.65
2022-08-24T03:23:48.550Z,3.60
2022-08-24T03:26:15.499Z,3.40
2022-08-24T03:28:44.641Z,4.22
2022-08-24T03:31:12.336Z,4.70
2022-08-24T03:33:38.981Z,4.20
2022-08-24T03:36:06.137Z,2.75
2022-08-24T03:38:32.806Z,2.90
2022-08-24T03:40:59.827Z,3.67
2022-08-24T03:43:44.950Z,4.30
2022-08-24T03:46:12.366Z,2.47
2022-08-24T03:48:40.544Z,5.10
2022-08-24T03:51:10.645Z,3.40
2022-08-24T03:53:37.626Z,3.97
2022-08-24T03:56:10.681Z,3.72
2022-08-24T03:58:39.337Z,2.92
2022-08-24T04:01:06.298Z,3.80
2022-08-24T04:03:44.291Z,3.72
2022-08-24T04:06:12.338Z,4.13
2022-08-24T04:08:40.669Z,4.90
2022-08-24T04:11:18.059Z,4.47
2022-08-24T04:13:46.593Z,4.30
2022-08-24T04:16:19.049Z,3.90
2022-08-24T04:18:45.850Z,4.22
2022-08-24T04:21:23.303Z,4.28
2022-08-24T04:23:50.398Z,4.05
2022-08-24T04:26:36.426Z,5.13
2022-08-24T04:29:08.209Z,4.85
2022-08-24T04:31:36.913Z,5.30
2022-08-24T04:34:04.200Z,4.00
2022-08-24T04:36:32.402Z,4.43
2022-08-24T04:39:00.816Z,5.13
2022-08-24T04:41:31.259Z,4.68
2022-08-24T04:43:59.314Z,3.90
2022-08-24T04:46:27.088Z,3.42
2022-08-24T04:48:54.212Z,4.97
2022-08-24T04:51:21.331Z,5.13
2022-08-24T04:53:50.427Z,6.07
2022-08-24T04:56:23.790Z,3.38
2022-08-24T04:58:52.244Z,5.03
2022-08-24T05:01:22.344Z,4.88
2022-08-24T05:03:50.592Z,4.88
2022-08-24T05:06:19.142Z,6.00
2022-08-24T05:08:47.292Z,5.50
2022-08-24T05:11:15.037Z,4.60
2022-08-24T05:13:41.739Z,4.90
2022-08-24T05:16:11.964Z,5.35
2022-08-24T05:18:40.713Z,5.35
2022-08-24T05:21:09.648Z,4.93
2022-08-24T05:23:37.920Z,6.80
2022-08-24T05:26:06.839Z,6.18
2022-08-24T05:28:35.421Z,5.38
2022-08-24T05:31:14.747Z,5.38
2022-08-24T05:33:42.040Z,4.97
2022-08-24T05:36:23.302Z,5.63
2022-08-24T05:38:52.767Z,5.07
2022-08-24T05:41:20.117Z,5.10
2022-08-24T05:43:47.290Z,4.60
2022-08-24T05:46:14.746Z,4.80
2022-08-24T05:48:41.803Z,5.50
2022-08-24T05:51:10.106Z,3.78
2022-08-24T05:53:38.178Z,5.53
2022-08-24T05:56:13.494Z,5.47
2022-08-24T05:58:41.101Z,4.95
2022-08-24T06:01:10.637Z,3.95
2022-08-24T06:03:38.621Z,4.10
2022-08-24T06:06:08.493Z,3.10
2022-08-24T06:08:41.075Z,3.83
2022-08-24T06:11:08.885Z,4.43
2022-08-24T06:13:36.573Z,5.60
2022-08-24T06:16:21.232Z,4.93
2022-08-24T06:18:49.631Z,4.88
2022-08-24T06:21:20.900Z,4.97
2022-08-24T06:23:48.498Z,4.40
2022-08-24T06:26:34.344Z,4.50
2022-08-24T06:29:02.307Z,4.63
2022-08-24T06:31:29.153Z,4.15
2022-08-24T06:34:06.053Z,5.03
2022-08-24T06:36:32.694Z,3.60
2022-08-24T06:38:59.992Z,4.03
2022-08-24T06:41:27.925Z,4.30
2022-08-24T06:43:54.581Z,4.80
2022-08-24T06:46:24.979Z,3.88
2022-08-24T06:48:54.052Z,4.05
2022-08-24T06:51:25.254Z,4.07
2022-08-24T06:53:53.697Z,4.88
2022-08-24T06:56:20.963Z,4.22
2022-08-24T06:58:48.014Z,4.93
2022-08-24T07:01:18.126Z,4.45
2022-08-24T07:03:45.705Z,4.43
2022-08-24T07:06:14.234Z,4.25
2022-08-24T07:08:43.056Z,4.25
2022-08-24T07:11:11.425Z,4.43
2022-08-24T07:13:38.683Z,4.88
2022-08-24T07:16:05.691Z,4.97
2022-08-24T07:18:32.940Z,4.82
2022-08-24T07:21:02.419Z,4.25
2022-08-24T07:23:42.369Z,4.78
2022-08-24T07:26:21.294Z,4.82
2022-08-24T07:29:05.055Z,6.13
2022-08-24T07:31:35.503Z,5.13
2022-08-24T07:34:03.574Z,5.28
2022-08-24T07:36:30.414Z,4.15
2022-08-24T07:38:57.269Z,5.53
2022-08-24T07:44:14.715Z,5.82
2022-08-24T07:46:42.137Z,4.95
2022-08-24T07:49:19.275Z,4.90
2022-08-24T07:51:54.923Z,4.63
2022-08-24T07:54:21.803Z,4.05
2022-08-24T07:56:50.091Z,4.82
2022-08-24T07:59:17.720Z,3.67
2022-08-24T08:01:44.847Z,4.32
2022-08-24T08:04:11.888Z,4.90
2022-08-24T08:06:38.627Z,5.30
2022-08-24T08:09:06.277Z,4.95
2022-08-24T08:11:33.537Z,4.60
2022-08-24T08:14:00.221Z,3.10
2022-08-24T08:16:27.445Z,4.55
2022-08-24T08:19:09.268Z,4.13
2022-08-24T08:22:09.626Z,5.53
2022-08-24T08:24:39.655Z,4.25
2022-08-24T08:27:06.932Z,4.38
2022-08-24T08:29:34.434Z,4.72
2022-08-24T08:32:01.128Z,3.85
2022-08-24T08:34:28.822Z,4.97
2022-08-24T08:36:55.555Z,3.92
2022-08-24T08:39:22.728Z,4.20
2022-08-24T08:41:49.293Z,4.40
2022-08-24T08:44:44.229Z,3.75
2022-08-24T08:47:27.693Z,4.00
2022-08-24T08:50:06.985Z,3.67
2022-08-24T08:52:52.421Z,4.78
2022-08-24T08:55:39.718Z,4.40
2022-08-24T08:58:28.107Z,3.80
2022-08-24T09:01:01.544Z,4.18
2022-08-24T09:03:43.457Z,4.82
2022-08-24T09:06:16.292Z,4.28
2022-08-24T09:08:52.133Z,3.40
2022-08-24T09:11:18.978Z,2.90
2022-08-24T09:14:18.833Z,3.55
2022-08-24T09:17:12.989Z,4.85
2022-08-24T09:20:02.434Z,3.40
2022-08-24T09:22:29.689Z,3.70
2022-08-24T09:25:07.926Z,2.88
2022-08-24T09:27:37.353Z,3.72
2022-08-24T09:30:24.487Z,5.03
2022-08-24T09:33:14.560Z,3.28
2022-08-24T09:36:07.959Z,4.13
2022-08-24T09:38:43.126Z,3.67
2022-08-24T09:41:34.154Z,4.80
2022-08-24T09:44:29.538Z,3.35
2022-08-24T09:47:05.192Z,3.10
2022-08-24T09:49:59.169Z,2.63
2022-08-24T09:52:46.996Z,2.97
2022-08-24T09:55:16.723Z,3.58
2022-08-24T09:58:03.575Z,3.28
2022-08-24T10:00:39.582Z,3.42
2022-08-24T10:03:33.964Z,3.28
2022-08-24T10:06:16.250Z,3.28
2022-08-24T10:09:14.413Z,6.78
2022-08-24T10:11:57.852Z,3.63
2022-08-24T10:14:41.077Z,4.00
2022-08-24T10:17:33.117Z,2.80
2022-08-24T10:20:26.070Z,2.83
2022-08-24T10:23:01.634Z,3.20
2022-08-24T10:25:54.434Z,3.20
2022-08-24T10:28:58.136Z,2.70
2022-08-24T10:31:40.388Z,2.60
2022-08-24T10:34:40.272Z,3.42
2022-08-24T10:37:18.818Z,3.13
2022-08-24T10:40:09.400Z,3.30
2022-08-24T10:43:19.871Z,3.60
2022-08-24T10:46:22.620Z,3.13
2022-08-24T10:49:27.337Z,3.70
2022-08-24T10:52:09.050Z,3.35
2022-08-24T10:54:37.053Z,2.35
2022-08-24T10:57:15.101Z,2.42
2022-08-24T11:00:02.784Z,3.85
2022-08-24T11:02:39.854Z,3.33
2022-08-24T11:05:10.598Z,2.50
2022-08-24T11:07:38.241Z,2.40
2022-08-24T11:10:08.804Z,3.88
2022-08-24T11:12:42.494Z,3.25
2022-08-24T11:15:18.249Z,3.60
2022-08-24T11:18:04.964Z,3.13
2022-08-24T11:20:41.201Z,3.35
2022-08-24T11:23:34.537Z,3.40
2022-08-24T11:26:20.847Z,3.75
2022-08-24T11:28:53.459Z,3.63
2022-08-24T11:31:33.816Z,3.60
2022-08-24T11:36:34.695Z,3.85
2022-08-24T11:39:21.923Z,3.33
2022-08-24T11:42:14.433Z,2.83
2022-08-24T11:44:49.826Z,2.78
2022-08-24T11:47:45.785Z,2.92
2022-08-24T11:50:18.381Z,2.45
2022-08-24T11:53:24.540Z,2.83
2022-08-24T11:56:00.677Z,2.58
2022-08-24T11:58:49.186Z,2.30
2022-08-24T12:01:42.889Z,1.63
2022-08-24T12:04:14.618Z,3.10
2022-08-24T12:06:59.836Z,3.00
2022-08-24T12:09:36.069Z,2.85
2022-08-24T12:12:27.464Z,2.92
2022-08-24T12:15:05.733Z,3.03
2022-08-24T12:17:32.862Z,3.53
2022-08-24T12:20:05.247Z,2.40
2022-08-24T12:22:32.588Z,2.85
2022-08-24T12:25:24.353Z,2.20
2022-08-24T12:27:53.946Z,3.80
2022-08-24T12:30:20.748Z,2.35
2022-08-24T12:32:50.148Z,2.25
2022-08-24T12:35:22.709Z,2.85
2022-08-24T12:38:00.241Z,2.63
2022-08-24T12:40:36.586Z,1.98
2022-08-24T12:43:18.797Z,2.58
2022-08-24T12:45:46.075Z,2.75
2022-08-24T12:48:15.547Z,3.95
2022-08-24T12:51:18.998Z,2.42
2022-08-24T12:54:19.046Z,2.03
2022-08-24T12:57:02.557Z,2.97
2022-08-24T13:00:11.073Z,2.67
2022-08-24T13:02:48.438Z,2.28
2022-08-24T13:05:19.170Z,2.65
2022-08-24T13:07:49.802Z,2.28
2022-08-24T13:10:38.541Z,3.45
2022-08-24T13:13:05.172Z,3.28
2022-08-24T13:15:31.769Z,2.50
2022-08-24T13:18:03.251Z,2.83
2022-08-24T13:20:50.213Z,2.13
2022-08-24T13:23:23.039Z,2.58
2022-08-24T13:26:13.998Z,2.28
2022-08-24T13:28:54.503Z,2.53
2022-08-24T13:31:33.455Z,2.00
2022-08-24T13:34:24.858Z,2.55
2022-08-24T13:37:15.816Z,2.42
2022-08-24T13:39:58.654Z,2.83
2022-08-24T13:42:41.326Z,3.10
2022-08-24T13:45:23.090Z,2.53
2022-08-24T13:48:08.300Z,2.50
2022-08-24T13:50:37.937Z,2.33
2022-08-24T13:53:35.040Z,3.20
2022-08-24T13:56:33.198Z,3.45
2022-08-24T13:59:33.765Z,2.53
2022-08-24T14:02:42.301Z,2.70
2022-08-24T14:05:57.561Z,2.47
2022-08-24T14:08:30.008Z,3.50
2022-08-24T14:11:14.840Z,2.83
2022-08-24T14:13:57.170Z,3.28
2022-08-24T14:16:57.715Z,2.85
2022-08-24T14:19:50.937Z,2.83
2022-08-24T14:22:39.837Z,3.38
2022-08-24T14:25:22.645Z,2.60
2022-08-24T14:28:11.286Z,2.97
2022-08-24T14:30:43.397Z,3.53
2022-08-24T14:33:14.984Z,3.03
2022-08-24T14:35:56.699Z,2.55
2022-08-24T14:38:38.036Z,2.25
2022-08-24T14:41:22.364Z,3.80
2022-08-24T14:43:48.983Z,3.72
2022-08-24T14:46:33.809Z,4.05
2022-08-24T14:49:58.372Z,3.13
2022-08-24T14:53:02.776Z,3.45
2022-08-24T14:56:01.581Z,2.70
2022-08-24T14:58:31.327Z,2.95
2022-08-24T15:01:08.353Z,3.75
2022-08-24T15:04:12.486Z,3.03
2022-08-24T15:06:51.099Z,2.75
2022-08-24T15:09:28.041Z,3.03
2022-08-24T15:12:03.242Z,2.60
2022-08-24T15:14:33.807Z,3.10
2022-08-24T15:17:11.714Z,3.05
2022-08-24T15:20:15.313Z,2.30
2022-08-24T15:22:57.961Z,2.90
2022-08-24T15:25:41.733Z,2.58
2022-08-24T15:28:24.701Z,2.38
2022-08-24T15:31:01.590Z,3.05
2022-08-24T15:33:30.361Z,3.50
2022-08-24T15:36:10.434Z,3.33
2022-08-24T15:38:39.674Z,3.88
2022-08-24T15:41:19.105Z,3.28
2022-08-24T15:43:50.790Z,3.00
2022-08-24T15:48:50.964Z,2.55
2022-08-24T15:51:43.127Z,3.70
2022-08-24T15:54:31.318Z,3.10
2022-08-24T15:57:04.688Z,4.03
2022-08-24T15:59:46.718Z,4.93
2022-08-24T16:02:25.990Z,4.05
2022-08-24T16:05:18.812Z,3.05
2022-08-24T16:08:03.866Z,3.83
2022-08-24T16:10:42.570Z,3.25
2022-08-24T16:13:19.218Z,3.75
2022-08-24T16:16:11.708Z,2.90
2022-08-24T16:18:51.146Z,3.72
2022-08-24T16:21:34.132Z,3.10
2022-08-24T16:24:07.315Z,3.53
2022-08-24T16:26:53.906Z,3.38
2022-08-24T16:29:39.048Z,3.92
2022-08-24T16:32:21.545Z,3.97
2022-08-24T16:35:08.459Z,3.67
2022-08-24T16:37:36.112Z,3.95
2022-08-24T16:40:03.914Z,3.58
2022-08-24T16:42:31.293Z,2.83
2022-08-24T16:44:58.873Z,3.25
2022-08-24T16:47:27.355Z,3.75
2022-08-24T16:49:54.486Z,3.78
2022-08-24T16:52:21.965Z,3.10
2022-08-24T16:54:49.045Z,4.13
2022-08-24T16:57:19.705Z,3.05
2022-08-24T16:59:48.229Z,3.00
2022-08-24T17:02:16.713Z,2.55
2022-08-24T17:04:43.730Z,3.08
2022-08-24T17:07:14.054Z,2.53
2022-08-24T17:09:43.848Z,2.90
2022-08-24T17:12:10.829Z,5.10
2022-08-24T17:14:39.431Z,2.80
2022-08-24T17:17:07.750Z,2.97
2022-08-24T17:19:35.564Z,1.95
2022-08-24T17:22:02.419Z,2.92
2022-08-24T17:24:29.410Z,2.63
2022-08-24T17:26:56.598Z,3.15
2022-08-24T17:29:24.734Z,2.38
2022-08-24T17:31:52.204Z,2.20
2022-08-24T17:34:21.199Z,2.45
2022-08-24T17:36:54.351Z,2.70
2022-08-24T17:39:23.993Z,2.92
2022-08-24T17:41:52.340Z,2.38
2022-08-24T17:44:25.013Z,2.83
2022-08-24T17:46:54.786Z,3.28
2022-08-24T17:49:21.995Z,3.00
2022-08-24T17:51:49.669Z,3.03
2022-08-24T17:54:17.303Z,2.95
2022-08-24T17:56:46.484Z,2.22
2022-08-24T17:59:23.334Z,2.97
2022-08-24T18:01:52.264Z,2.45
2022-08-24T18:04:20.805Z,2.72
2022-08-24T18:06:49.498Z,2.40
2022-08-24T18:09:54.940Z,3.25
2022-08-24T18:12:24.603Z,2.83
2022-08-24T18:14:52.302Z,4.38
2022-08-24T18:17:23.672Z,4.03
2022-08-24T18:19:52.886Z,2.88
2022-08-24T18:22:20.025Z,4.10
2022-08-24T18:24:46.773Z,4.40
2022-08-24T18:27:19.146Z,2.70
2022-08-24T18:29:47.430Z,3.20
2022-08-24T18:32:22.171Z,4.20
2022-08-24T18:34:49.130Z,3.92
2022-08-24T18:37:15.906Z,3.92
2022-08-24T18:39:42.726Z,4.10
2022-08-24T18:42:12.644Z,3.28
2022-08-24T18:44:40.010Z,3.60
2022-08-24T18:47:08.110Z,2.45
2022-08-24T18:49:35.610Z,3.30
2022-08-24T18:52:03.639Z,3.42
2022-08-24T18:54:38.089Z,4.82
2022-08-24T18:57:07.247Z,3.67
2022-08-24T18:59:35.383Z,3.08
2022-08-24T19:02:33.136Z,3.40
2022-08-24T19:05:06.470Z,3.55
2022-08-24T19:07:36.083Z,4.03
2022-08-24T19:10:04.950Z,4.03
2022-08-24T19:12:42.449Z,3.42
2022-08-24T19:15:35.852Z,4.10
2022-08-24T19:18:02.670Z,3.78
2022-08-24T19:20:30.759Z,3.03
2022-08-24T19:23:04.954Z,3.92
2022-08-24T19:25:32.623Z,4.22
2022-08-24T19:27:59.546Z,4.07
2022-08-24T19:30:28.146Z,3.13
2022-08-24T19:32:59.268Z,3.60
2022-08-24T19:35:26.283Z,3.47
2022-08-24T19:37:52.957Z,3.28
2022-08-24T19:40:22.690Z,3.17
2022-08-24T19:42:53.444Z,4.32
2022-08-24T19:45:43.612Z,3.45
2022-08-24T19:48:11.517Z,3.15
2022-08-24T19:50:38.691Z,3.83
2022-08-24T19:53:06.570Z,3.33
2022-08-24T19:55:33.497Z,3.78
2022-08-24T19:58:06.240Z,3.88
2022-08-24T20:00:42.058Z,3.75
2022-08-24T20:03:15.072Z,4.10
2022-08-24T20:05:41.860Z,3.88
2022-08-24T20:08:08.814Z,3.80
2022-08-24T20:10:35.620Z,4.20
2022-08-24T20:13:02.427Z,4.85
2022-08-24T20:15:29.284Z,3.88
2022-08-24T20:17:57.891Z,4.22
2022-08-24T20:20:26.230Z,4.20
2022-08-24T20:22:53.154Z,4.68
2022-08-24T20:25:20.490Z,4.30
2022-08-24T20:27:48.206Z,4.50
2022-08-24T20:30:16.395Z,7.45
2022-08-24T20:32:43.500Z,5.80
2022-08-24T20:35:10.381Z,5.22
2022-08-24T20:37:39.541Z,3.97
2022-08-24T20:40:07.384Z,4.05
2022-08-24T20:42:34.149Z,4.25
2022-08-24T20:45:01.004Z,4.63
2022-08-24T20:47:27.908Z,4.50
2022-08-24T20:49:55.212Z,3.67
2022-08-24T20:52:22.293Z,6.00
2022-08-24T20:54:49.643Z,4.50
2022-08-24T20:57:19.336Z,4.13
2022-08-24T20:59:47.274Z,4.63
2022-08-24T21:02:14.133Z,5.38
2022-08-24T21:04:40.770Z,4.03
2022-08-24T21:07:11.228Z,4.55
2022-08-24T21:09:38.375Z,4.10
2022-08-24T21:12:05.407Z,4.50
2022-08-24T21:14:32.022Z,4.65
2022-08-24T21:16:59.193Z,3.63
2022-08-24T21:19:25.897Z,4.32
2022-08-24T21:21:52.606Z,4.32
2022-08-24T21:24:19.250Z,5.15
2022-08-24T21:26:46.188Z,4.13
2022-08-24T21:29:13.209Z,5.53
2022-08-24T21:31:39.905Z,4.82
2022-08-24T21:34:26.618Z,4.55
2022-08-24T21:36:54.650Z,5.05
2022-08-24T21:39:21.666Z,4.82
2022-08-24T21:41:48.353Z,6.88
2022-08-24T21:44:14.996Z,5.70
2022-08-24T21:46:41.815Z,4.90
2022-08-24T21:49:12.027Z,5.72
2022-08-24T21:51:39.454Z,5.60
2022-08-24T21:54:06.134Z,5.25
2022-08-24T21:56:34.270Z,5.78
2022-08-24T21:59:01.002Z,5.80
2022-08-24T22:01:28.670Z,5.15
2022-08-24T22:03:55.899Z,5.25
2022-08-24T22:06:22.792Z,4.65
2022-08-24T22:08:49.915Z,5.22
2022-08-24T22:11:19.655Z,6.05
2022-08-24T22:13:47.115Z,5.15
2022-08-24T22:16:14.168Z,5.90
2022-08-24T22:18:41.079Z,5.72
2022-08-24T22:21:13.599Z,4.35
2022-08-24T22:23:40.904Z,4.68
2022-08-24T22:26:08.530Z,5.20
2022-08-24T22:28:38.491Z,4.82
2022-08-24T22:31:23.136Z,5.45
2022-08-24T22:33:50.006Z,5.68
2022-08-24T22:36:17.829Z,6.15
2022-08-24T22:38:44.551Z,4.38
2022-08-24T22:41:11.681Z,4.97
2022-08-24T22:43:57.150Z,6.15
2022-08-24T22:46:25.879Z,6.35
2022-08-24T22:48:53.138Z,4.40
2022-08-24T22:51:19.997Z,5.70
2022-08-24T22:53:46.727Z,5.70
2022-08-24T22:56:19.390Z,5.90
2022-08-24T22:58:46.408Z,5.32
2022-08-24T23:01:36.630Z,5.32
2022-08-24T23:04:12.181Z,5.35
2022-08-24T23:06:39.190Z,6.40
2022-08-24T23:09:07.454Z,5.63
2022-08-24T23:11:34.890Z,6.22
2022-08-24T23:14:03.045Z,4.93
2022-08-24T23:16:32.334Z,4.65
2022-08-24T23:19:17.570Z,4.70
2022-08-24T23:21:44.603Z,5.97
2022-08-24T23:24:12.379Z,5.43
2022-08-24T23:26:40.831Z,5.35
2022-08-24T23:29:09.961Z,6.75
2022-08-24T23:31:36.972Z,5.82
2022-08-24T23:34:04.865Z,6.03
2022-08-24T23:36:31.556Z,5.20
2022-08-24T23:39:00.106Z,5.90
2022-08-24T23:41:30.068Z,6.55
2022-08-24T23:43:59.355Z,5.03
2022-08-24T23:46:26.781Z,4.30
2022-08-24T23:48:55.623Z,6.25
2022-08-24T23:51:23.657Z,5.35
2022-08-24T23:53:51.416Z,5.00
2022-08-24T23:56:30.796Z,7.65
2022-08-24T23:59:11.503Z,6.47
